x

Monterey - 27nm Wnw Of Monterey, Ca (46042) Wave Buoy

9:50pm - Fri 31st Jul 2015 All times are PDT. -7 hours from GMT.

  • Sig Wave height 3.6ft
  • Swell Direction
  • Peak Period 14s
  • Average Period 9s
  • Wind
    4mph
  • Sea Temp 62°f
  • Air Temp 63°f
  • Sea Pressure 1016.5mb
  • Monterey - 27nm Wnw Of Monterey, Ca
  • Monterey - 27nm Wnw Of Monterey, Ca

More Historic Weather Station data

Upgrade to MSW Pro to gain access to the past 30 days of data for over 8000 Wavebouys and Weather Stations around the globe.

Join Pro

Comparision Forecast

View Surf forecast
   
Fri 07/31 9:50pm 3.5ft 14s 9s 4
mph
1016.5mb 62f 63f
8:50pm 3ft 14s 8s 4 7 mph 1016.2mb 63f 64f
7:50pm 3.5ft 13s 8s 4 7 mph 1015.9mb 63f 64f
6:50pm 3.5ft 16s 8s 7 9 mph 1015.9mb 64f 64f
5:50pm 4ft 16s 8s 2 4 mph 1016mb 64f 64f
4:50pm 3.5ft 16s 8s 2 4 mph 1016.6mb 64f 64f
3:50pm 3.5ft 16s 9s 4
mph
1016.9mb 63f 64f
2:50pm 3.5ft 15s 8s 4 7 mph 1017.4mb 63f 63f
1:50pm 3.5ft 14s 8s 2 4 mph 1017.3mb 62f 62f
12:50pm 4ft 16s 8s 4
mph
1017.6mb 63f 61f
11:50am 4ft 14s 8s  -  2 mph 1017.6mb 62f 61f
10:50am 3.5ft 15s 8s 2 4 mph 1017.4mb 62f 61f
9:50am 4.5ft 9s 8s 4
mph
1017.4mb 62f 61f
8:50am 3.5ft 10s 8s 4 7 mph 1017.4mb 62f 61f
7:50am 4.5ft 15s 8s 4 7 mph 1017.3mb 62f 61f
6:50am 4.5ft 10s 8s 4
mph
1017.5mb 62f 61f
5:50am 4.5ft 15s 8s 4 7 mph 1017.1mb 62f 61f
4:50am 4.5ft 14s 8s 7
mph
1016.6mb 61f 61f
3:50am 4.5ft 15s 8s 7 9 mph 1016.5mb 61f 61f
2:50am 4ft 15s 8s 9 11 mph 1016.2mb 61f 62f
1:50am 4ft 15s 8s 9
mph
1016.3mb 61f 62f
12:50am 4ft 15s 8s 7 9 mph 1016.8mb 62f 62f
Thu 07/30 11:50pm 4.5ft 15s 9s 7 9 mph 1016.9mb 62f 62f
10:50pm 4.5ft 15s 9s 7 9 mph 1016.9mb 61f 62f
9:50pm 4ft 16s 8s 7 9 mph 1017mb 62f 63f
8:50pm 4.5ft 15s 8s 7 11 mph 1016.4mb 62f 63f
7:50pm 4.5ft 15s 8s 4 7 mph 1016.1mb 62f 63f
6:50pm 4.5ft 10s 8s 7
mph
1016.2mb 62f 63f
5:50pm 4.5ft 15s 9s 7 9 mph 1016.2mb 62f 63f
4:50pm 4.5ft 15s 9s 9 11 mph 1016.3mb 62f 63f
3:50pm 4.5ft 15s 9s 9
mph
1016.5mb 63f 63f
2:50pm 4.5ft 15s 9s 7 9 mph 1017mb 64f 63f
1:50pm 4.5ft 15s 8s 4 7 mph 1017.5mb 64f 63f
12:50pm 4.5ft 15s 8s 2 4 mph 1017.9mb 63f 62f
11:50am 4.5ft 15s 9s  -  2 mph 1018.3mb 62f 62f
10:50am 4.5ft 15s 9s 2 4 mph 1018.2mb 61f 61f
9:50am 4.5ft 15s 9s 2
mph
1018mb 61f 61f
8:50am 4.5ft 15s 9s  -  2 mph 1017.8mb 60f 61f
7:50am 4.5ft 15s 9s 2
mph
1017.5mb 60f 60f
6:50am 4.5ft 13s 8s 2 4 mph 1016.9mb 60f 60f
4:50am 4.5ft 15s 8s 4 7 mph 1015.8mb 61f 61f
3:50am 4.5ft 8s 8s 4 7 mph 1015.7mb 61f 61f
2:50am 4.5ft 15s 8s 2 4 mph 1015.7mb 60f 61f
1:50am 4.5ft 15s 8s 4 9 mph 1015.6mb 61f 61f
12:50am 4.5ft 15s 8s 4 7 mph 1015.7mb 61f 61f
Wed 07/29 11:50pm 4.5ft 15s 8s 4 7 mph 1015.5mb 61f 62f
10:50pm 4.5ft 16s 8s 4 7 mph 1015.4mb 61f 62f
9:50pm 4.5ft 15s 8s 4
mph
1014.9mb 61f 62f
8:50pm 5ft 15s 8s 4 7 mph 1014.4mb 61f 62f
7:50pm 4.5ft 15s 8s 7 9 mph 1014.2mb 61f 62f
6:50pm 4.5ft 10s 8s 4 7 mph 1014.1mb 61f 62f
5:50pm 4.5ft 9s 8s 4 7 mph 1014.3mb 62f 62f
4:50pm 5ft 9s 8s 7 9 mph 1014.3mb 61f 62f
3:50pm 5ft 16s 8s 9 11 mph 1014.7mb 61f 61f
2:50pm 5ft 15s 8s 9 11 mph 1014.8mb 61f 61f
1:50pm 5ft 16s 8s 9
mph
1014.7mb 61f 61f
12:50pm 5ft 9s 8s 7 9 mph 1014.7mb 61f 60f
11:50am 5ft 16s 8s 7 11 mph 1014.8mb 61f 60f
10:50am 5ft 16s 8s 7 9 mph 1014.7mb 60f 59f
9:50am 5ft 16s 9s 9 13 mph 1014.3mb 60f 58f
8:50am 5ft 16s 8s 9 11 mph 1014mb 60f 59f
7:50am 5ft 15s 8s 9 13 mph 1013.5mb 59f 59f
6:50am 5ft 16s 8s 9 11 mph 1013.2mb 59f 58f
5:50am 5ft 16s 8s 9 11 mph 1012.7mb 60f 58f
4:50am 5ft 16s 8s 4 7 mph 1012.4mb 60f 59f
3:50am 5ft 16s 8s 7 9 mph 1012.4mb 61f 59f
2:50am 5ft 16s 8s 9 11 mph 1012.3mb 62f 60f
1:50am 5ft 16s 8s 4
mph
1012.1mb 62f 60f
12:50am 5ft 16s 7s 2 4 mph 1012.4mb 62f 60f
Tue 07/28 11:50pm 5ft 16s 7s 2 4 mph 1012.6mb 63f 62f
10:50pm 6ft 9s 8s 2 4 mph 1012.7mb 63f 62f
9:50pm 6ft 16s 8s 2 4 mph 1012.4mb 63f 62f
8:50pm 6ft 9s 7s  -  2 mph 1012mb 63f 63f
12:50pm 6.5ft 9s 7s 7
mph
1013.2mb 62f 61f
11:50am 6ft 8s 7s 2 4 mph 1013.2mb 61f 60f
10:50am 6.5ft 17s 7s 2 4 mph 1013.1mb 60f 60f
9:50am 7ft 17s 8s  -  2 mph 1013.1mb 60f 60f
8:50am 7ft 9s 8s 2 4 mph 1013.1mb 60f 59f
7:50am 6.5ft 9s 7s 4 7 mph 1012.7mb 59f 59f
6:50am 7ft 17s 8s 7 9 mph 1012.3mb 59f 59f